sensor_id;sensor_type;location;lat;lon;timestamp;pressure;altitude;pressure_sealevel;temperature;humidity
8280;BME280;8335;42.646;23.380;2023-12-28T00:02:14;142666.94;;;4.29;91.27
8280;BME280;8335;42.646;23.380;2023-12-28T00:04:42;142682.97;;;4.35;91.27
8280;BME280;8335;42.646;23.380;2023-12-28T00:07:09;142674.34;;;4.32;90.84
8280;BME280;8335;42.646;23.380;2023-12-28T00:09:35;142669.41;;;4.30;91.13
8280;BME280;8335;42.646;23.380;2023-12-28T00:12:02;142647.13;;;4.21;90.94
8280;BME280;8335;42.646;23.380;2023-12-28T00:14:30;142652.09;;;4.23;91.77
8280;BME280;8335;42.646;23.380;2023-12-28T00:16:57;142623.66;;;4.11;93.01
8280;BME280;8335;42.646;23.380;2023-12-28T00:19:23;142642.19;;;4.19;93.77
8280;BME280;8335;42.646;23.380;2023-12-28T00:21:51;142629.81;;;4.13;93.84
8280;BME280;8335;42.646;23.380;2023-12-28T00:24:20;142606.34;;;4.04;94.54
8280;BME280;8335;42.646;23.380;2023-12-28T00:26:47;142595.19;;;3.99;95.02
8280;BME280;8335;42.646;23.380;2023-12-28T00:29:13;142584.09;;;3.95;95.25
8280;BME280;8335;42.646;23.380;2023-12-28T00:31:40;142572.97;;;3.90;95.29
8280;BME280;8335;42.646;23.380;2023-12-28T00:34:07;142559.34;;;3.84;95.73
8280;BME280;8335;42.646;23.380;2023-12-28T00:36:33;142535.88;;;3.75;96.18
8280;BME280;8335;42.646;23.380;2023-12-28T00:39:01;142537.13;;;3.75;96.79
8280;BME280;8335;42.646;23.380;2023-12-28T00:41:28;142522.28;;;3.69;96.98
8280;BME280;8335;42.646;23.380;2023-12-28T00:43:55;142500.06;;;3.60;97.90
8280;BME280;8335;42.646;23.380;2023-12-28T00:46:21;142497.59;;;3.59;99.16
8280;BME280;8335;42.646;23.380;2023-12-28T00:48:48;142480.28;;;3.52;100.00
8280;BME280;8335;42.646;23.380;2023-12-28T00:51:15;142483.97;;;3.53;100.00
8280;BME280;8335;42.646;23.380;2023-12-28T00:53:41;142490.16;;;3.56;100.00
8280;BME280;8335;42.646;23.380;2023-12-28T00:56:10;142487.69;;;3.55;100.00
8280;BME280;8335;42.646;23.380;2023-12-28T00:58:39;142488.91;;;3.55;100.00
8280;BME280;8335;42.646;23.380;2023-12-28T01:01:05;142498.81;;;3.59;100.00
8280;BME280;8335;42.646;23.380;2023-12-28T01:03:32;142492.63;;;3.57;100.00
8280;BME280;8335;42.646;23.380;2023-12-28T01:05:59;142487.69;;;3.55;100.00
8280;BME280;8335;42.646;23.380;2023-12-28T01:08:25;142483.97;;;3.53;100.00
8280;BME280;8335;42.646;23.380;2023-12-28T01:10:52;142482.75;;;3.53;100.00
8280;BME280;8335;42.646;23.380;2023-12-28T01:13:20;142495.13;;;3.58;100.00
8280;BME280;8335;42.646;23.380;2023-12-28T01:15:47;142496.34;;;3.58;100.00
8280;BME280;8335;42.646;23.380;2023-12-28T01:18:14;142486.44;;;3.54;100.00
8280;BME280;8335;42.646;23.380;2023-12-28T01:20:40;142495.13;;;3.58;100.00
8280;BME280;8335;42.646;23.380;2023-12-28T01:23:07;142485.22;;;3.54;100.00
8280;BME280;8335;42.646;23.380;2023-12-28T01:25:34;142486.44;;;3.54;100.00
8280;BME280;8335;42.646;23.380;2023-12-28T01:28:01;142469.16;;;3.47;99.70
8280;BME280;8335;42.646;23.380;2023-12-28T01:30:29;142454.31;;;3.41;99.40
8280;BME280;8335;42.646;23.380;2023-12-28T01:32:55;142466.69;;;3.46;98.67
8280;BME280;8335;42.646;23.380;2023-12-28T01:35:22;142469.16;;;3.47;97.42
8280;BME280;8335;42.646;23.380;2023-12-28T01:37:49;142474.06;;;3.49;97.03
8280;BME280;8335;42.646;23.380;2023-12-28T01:40:15;142454.31;;;3.41;97.44
8280;BME280;8335;42.646;23.380;2023-12-28T01:42:43;142451.84;;;3.40;97.11
8280;BME280;8335;42.646;23.380;2023-12-28T01:45:11;142451.84;;;3.40;97.28
8280;BME280;8335;42.646;23.380;2023-12-28T01:47:39;142459.28;;;3.43;96.61
8280;BME280;8335;42.646;23.380;2023-12-28T01:50:07;142466.69;;;3.46;96.43
8280;BME280;8335;42.646;23.380;2023-12-28T01:52:34;142469.16;;;3.47;96.60
8280;BME280;8335;42.646;23.380;2023-12-28T01:55:01;142465.44;;;3.46;96.18
8280;BME280;8335;42.646;23.380;2023-12-28T01:57:28;142458.00;;;3.43;96.01
8280;BME280;8335;42.646;23.380;2023-12-28T01:59:55;142455.56;;;3.42;95.66
8280;BME280;8335;42.646;23.380;2023-12-28T02:02:24;142451.84;;;3.40;95.42
8280;BME280;8335;42.646;23.380;2023-12-28T02:04:52;142456.78;;;3.42;95.58
8280;BME280;8335;42.646;23.380;2023-12-28T02:07:20;142439.47;;;3.35;95.74
8280;BME280;8335;42.646;23.380;2023-12-28T02:09:47;142451.84;;;3.40;96.04
8280;BME280;8335;42.646;23.380;2023-12-28T02:12:14;142445.69;;;3.38;95.93
8280;BME280;8335;42.646;23.380;2023-12-28T02:14:40;142440.72;;;3.36;96.10
8280;BME280;8335;42.646;23.380;2023-12-28T02:17:11;142396.25;;;3.17;95.95
8280;BME280;8335;42.646;23.380;2023-12-28T02:19:43;142427.16;;;3.30;96.48
8280;BME280;8335;42.646;23.380;2023-12-28T02:22:13;142434.56;;;3.33;96.41
8280;BME280;8335;42.646;23.380;2023-12-28T02:25:06;142439.47;;;3.35;96.48
8280;BME280;8335;42.646;23.380;2023-12-28T02:27:34;142437.00;;;3.34;96.71
8280;BME280;8335;42.646;23.380;2023-12-28T02:30:02;142439.47;;;3.35;96.83
8280;BME280;8335;42.646;23.380;2023-12-28T02:32:37;142433.31;;;3.33;97.40
8280;BME280;8335;42.646;23.380;2023-12-28T02:35:13;142396.25;;;3.17;98.24
8280;BME280;8335;42.646;23.380;2023-12-28T02:37:42;142419.72;;;3.27;99.59
8280;BME280;8335;42.646;23.380;2023-12-28T02:40:14;142409.88;;;3.23;100.00
8280;BME280;8335;42.646;23.380;2023-12-28T02:42:41;142399.97;;;3.19;100.00
8280;BME280;8335;42.646;23.380;2023-12-28T02:45:09;142398.72;;;3.18;100.00
8280;BME280;8335;42.646;23.380;2023-12-28T02:47:35;142397.50;;;3.18;100.00
8280;BME280;8335;42.646;23.380;2023-12-28T02:50:02;142393.81;;;3.16;100.00
8280;BME280;8335;42.646;23.380;2023-12-28T02:52:29;142369.06;;;3.06;100.00
8280;BME280;8335;42.646;23.380;2023-12-28T02:54:56;142362.91;;;3.03;100.00
8280;BME280;8335;42.646;23.380;2023-12-28T02:57:24;142366.59;;;3.05;100.00
8280;BME280;8335;42.646;23.380;2023-12-28T02:59:51;142366.59;;;3.05;100.00
8280;BME280;8335;42.646;23.380;2023-12-28T03:02:17;142356.75;;;3.01;100.00
8280;BME280;8335;42.646;23.380;2023-12-28T03:04:44;142351.78;;;2.99;100.00
8280;BME280;8335;42.646;23.380;2023-12-28T03:07:11;142357.97;;;3.01;100.00
8280;BME280;8335;42.646;23.380;2023-12-28T03:09:37;142351.78;;;2.99;100.00
8280;BME280;8335;42.646;23.380;2023-12-28T03:12:05;142343.16;;;2.95;100.00
8280;BME280;8335;42.646;23.380;2023-12-28T03:14:34;142329.56;;;2.90;100.00
8280;BME280;8335;42.646;23.380;2023-12-28T03:17:00;142332.03;;;2.91;100.00
8280;BME280;8335;42.646;23.380;2023-12-28T03:19:27;142335.72;;;2.92;100.00
8280;BME280;8335;42.646;23.380;2023-12-28T03:21:54;142344.38;;;2.96;100.00
8280;BME280;8335;42.646;23.380;2023-12-28T03:24:20;142349.31;;;2.98;100.00
8280;BME280;8335;42.646;23.380;2023-12-28T03:26:47;142355.53;;;3.00;100.00
8280;BME280;8335;42.646;23.380;2023-12-28T03:29:14;142364.16;;;3.04;100.00
8280;BME280;8335;42.646;23.380;2023-12-28T03:31:42;142367.84;;;3.06;100.00
8280;BME280;8335;42.646;23.380;2023-12-28T03:34:08;142366.59;;;3.05;100.00
8280;BME280;8335;42.646;23.380;2023-12-28T03:36:35;142366.59;;;3.05;100.00
8280;BME280;8335;42.646;23.380;2023-12-28T03:39:02;142364.16;;;3.04;100.00
8280;BME280;8335;42.646;23.380;2023-12-28T03:41:30;142362.91;;;3.03;100.00
8280;BME280;8335;42.646;23.380;2023-12-28T03:43:57;142367.84;;;3.06;100.00
8280;BME280;8335;42.646;23.380;2023-12-28T03:46:24;142370.31;;;3.07;100.00
8280;BME280;8335;42.646;23.380;2023-12-28T03:48:52;142335.72;;;2.92;100.00
8280;BME280;8335;42.646;23.380;2023-12-28T03:51:19;142376.50;;;3.09;100.00
8280;BME280;8335;42.646;23.380;2023-12-28T03:53:45;142376.50;;;3.09;100.00
8280;BME280;8335;42.646;23.380;2023-12-28T03:56:21;142367.84;;;3.06;100.00
8280;BME280;8335;42.646;23.380;2023-12-28T03:58:48;142359.22;;;3.02;100.00
8280;BME280;8335;42.646;23.380;2023-12-28T04:01:16;142343.16;;;2.95;100.00
8280;BME280;8335;42.646;23.380;2023-12-28T04:03:43;142345.63;;;2.96;100.00
8280;BME280;8335;42.646;23.380;2023-12-28T04:06:12;142336.94;;;2.93;100.00
8280;BME280;8335;42.646;23.380;2023-12-28T04:08:39;142320.94;;;2.86;100.00
8280;BME280;8335;42.646;23.380;2023-12-28T04:11:06;142323.41;;;2.87;100.00
8280;BME280;8335;42.646;23.380;2023-12-28T04:13:32;142312.25;;;2.83;100.00
8280;BME280;8335;42.646;23.380;2023-12-28T04:15:59;142298.66;;;2.77;100.00
8280;BME280;8335;42.646;23.380;2023-12-28T04:18:26;142260.41;;;2.61;100.00
8280;BME280;8335;42.646;23.380;2023-12-28T04:20:53;142278.91;;;2.69;100.00
8280;BME280;8335;42.646;23.380;2023-12-28T04:23:21;142272.75;;;2.66;100.00
8280;BME280;8335;42.646;23.380;2023-12-28T04:25:48;142269.06;;;2.65;100.00
8280;BME280;8335;42.646;23.380;2023-12-28T04:28:14;142270.31;;;2.65;100.00
8280;BME280;8335;42.646;23.380;2023-12-28T04:30:41;142271.53;;;2.66;100.00
8280;BME280;8335;42.646;23.380;2023-12-28T04:33:08;142249.28;;;2.57;100.00
8280;BME280;8335;42.646;23.380;2023-12-28T04:35:34;142244.34;;;2.55;100.00
8280;BME280;8335;42.646;23.380;2023-12-28T04:38:01;142236.97;;;2.52;100.00
8280;BME280;8335;42.646;23.380;2023-12-28T04:40:29;142238.19;;;2.52;100.00
8280;BME280;8335;42.646;23.380;2023-12-28T04:42:56;142240.66;;;2.53;100.00
8280;BME280;8335;42.646;23.380;2023-12-28T04:45:23;142238.19;;;2.52;100.00
8280;BME280;8335;42.646;23.380;2023-12-28T04:47:49;142248.03;;;2.56;100.00
8280;BME280;8335;42.646;23.380;2023-12-28T04:50:16;142239.44;;;2.53;100.00
8280;BME280;8335;42.646;23.380;2023-12-28T04:52:43;142249.28;;;2.57;100.00
8280;BME280;8335;42.646;23.380;2023-12-28T04:55:09;142241.88;;;2.54;100.00
8280;BME280;8335;42.646;23.380;2023-12-28T04:57:37;142250.56;;;2.57;100.00
8280;BME280;8335;42.646;23.380;2023-12-28T05:00:05;142249.28;;;2.57;100.00
8280;BME280;8335;42.646;23.380;2023-12-28T05:02:32;142250.56;;;2.57;100.00
8280;BME280;8335;42.646;23.380;2023-12-28T05:04:59;142253.03;;;2.58;100.00
8280;BME280;8335;42.646;23.380;2023-12-28T05:07:26;142244.34;;;2.55;100.00
8280;BME280;8335;42.646;23.380;2023-12-28T05:09:52;142254.25;;;2.59;100.00
8280;BME280;8335;42.646;23.380;2023-12-28T05:12:19;142255.47;;;2.59;100.00
8280;BME280;8335;42.646;23.380;2023-12-28T05:14:47;142253.03;;;2.58;100.00
8280;BME280;8335;42.646;23.380;2023-12-28T05:17:14;142233.28;;;2.50;100.00
8280;BME280;8335;42.646;23.380;2023-12-28T05:19:40;142255.47;;;2.59;100.00
8280;BME280;8335;42.646;23.380;2023-12-28T05:22:07;142250.56;;;2.57;100.00
8280;BME280;8335;42.646;23.380;2023-12-28T05:24:36;142259.16;;;2.61;100.00
8280;BME280;8335;42.646;23.380;2023-12-28T05:27:03;142244.34;;;2.55;100.00
8280;BME280;8335;42.646;23.380;2023-12-28T05:29:30;142234.50;;;2.51;100.00
8280;BME280;8335;42.646;23.380;2023-12-28T05:31:58;142228.28;;;2.48;100.00
8280;BME280;8335;42.646;23.380;2023-12-28T05:34:24;142222.13;;;2.45;100.00
8280;BME280;8335;42.646;23.380;2023-12-28T05:36:51;142204.84;;;2.38;100.00
8280;BME280;8335;42.646;23.380;2023-12-28T05:39:18;142198.69;;;2.36;100.00
8280;BME280;8335;42.646;23.380;2023-12-28T05:41:44;142178.91;;;2.28;100.00
8280;BME280;8335;42.646;23.380;2023-12-28T05:44:13;142174.00;;;2.26;100.00
8280;BME280;8335;42.646;23.380;2023-12-28T05:46:39;142174.00;;;2.26;100.00
8280;BME280;8335;42.646;23.380;2023-12-28T05:49:07;142170.28;;;2.24;100.00
8280;BME280;8335;42.646;23.380;2023-12-28T05:51:37;142078.97;;;1.86;100.00
8280;BME280;8335;42.646;23.380;2023-12-28T05:54:05;142169.06;;;2.24;100.00
8280;BME280;8335;42.646;23.380;2023-12-28T05:56:31;142167.84;;;2.23;100.00
8280;BME280;8335;42.646;23.380;2023-12-28T05:58:58;142172.75;;;2.25;100.00
8280;BME280;8335;42.646;23.380;2023-12-28T06:01:25;142175.22;;;2.26;100.00
8280;BME280;8335;42.646;23.380;2023-12-28T06:03:52;142164.13;;;2.22;100.00
8280;BME280;8335;42.646;23.380;2023-12-28T06:06:20;142164.13;;;2.22;100.00
8280;BME280;8335;42.646;23.380;2023-12-28T06:08:47;142164.13;;;2.22;100.00
8280;BME280;8335;42.646;23.380;2023-12-28T06:11:14;142174.00;;;2.26;100.00
8280;BME280;8335;42.646;23.380;2023-12-28T06:13:41;142183.88;;;2.30;100.00
8280;BME280;8335;42.646;23.380;2023-12-28T06:16:08;142188.81;;;2.32;100.00
8280;BME280;8335;42.646;23.380;2023-12-28T06:18:35;142223.38;;;2.46;100.00
8280;BME280;8335;42.646;23.380;2023-12-28T06:21:02;142225.84;;;2.47;100.00
8280;BME280;8335;42.646;23.380;2023-12-28T06:23:32;142385.13;;;3.13;100.00
8280;BME280;8335;42.646;23.380;2023-12-28T06:26:04;142486.44;;;3.54;100.00
8280;BME280;8335;42.646;23.380;2023-12-28T06:28:32;142624.88;;;4.11;98.80
8280;BME280;8335;42.646;23.380;2023-12-28T06:30:59;142731.22;;;4.55;96.24
8280;BME280;8335;42.646;23.380;2023-12-28T06:33:26;142856.16;;;5.07;93.52
8280;BME280;8335;42.646;23.380;2023-12-28T06:35:54;142981.19;;;5.58;91.17
8280;BME280;8335;42.646;23.380;2023-12-28T06:38:23;143098.84;;;6.06;87.83
8280;BME280;8335;42.646;23.380;2023-12-28T06:40:51;143222.75;;;6.57;85.72
8280;BME280;8335;42.646;23.380;2023-12-28T06:43:18;143344.19;;;7.07;80.80
8280;BME280;8335;42.646;23.380;2023-12-28T06:45:45;143481.78;;;7.64;78.94
8280;BME280;8335;42.646;23.380;2023-12-28T06:48:12;143598.38;;;8.12;75.12
8280;BME280;8335;42.646;23.380;2023-12-28T06:50:38;143726.22;;;8.64;72.64
8280;BME280;8335;42.646;23.380;2023-12-28T06:53:05;143828.03;;;9.06;69.24
8280;BME280;8335;42.646;23.380;2023-12-28T06:55:32;143878.94;;;9.27;66.87
8280;BME280;8335;42.646;23.380;2023-12-28T06:58:02;143927.38;;;9.47;65.05
8280;BME280;8335;42.646;23.380;2023-12-28T07:00:29;144006.91;;;9.79;64.21
8280;BME280;8335;42.646;23.380;2023-12-28T07:02:56;144098.84;;;10.17;62.74
8280;BME280;8335;42.646;23.380;2023-12-28T07:05:22;144194.56;;;10.56;61.92
8280;BME280;8335;42.646;23.380;2023-12-28T07:07:49;144281.59;;;10.92;62.04
8280;BME280;8335;42.646;23.380;2023-12-28T07:10:16;144379.84;;;11.32;61.05
8280;BME280;8335;42.646;23.380;2023-12-28T07:12:42;144481.88;;;11.74;60.57
8280;BME280;8335;42.646;23.380;2023-12-28T07:15:11;144564.06;;;12.07;58.41
8280;BME280;8335;42.646;23.380;2023-12-28T07:17:39;144659.91;;;12.47;57.72
8280;BME280;8335;42.646;23.380;2023-12-28T07:20:07;144742.09;;;12.80;56.32
8280;BME280;8335;42.646;23.380;2023-12-28T07:22:36;144835.50;;;13.18;54.76
8280;BME280;8335;42.646;23.380;2023-12-28T07:25:04;144932.75;;;13.58;53.73
8280;BME280;8335;42.646;23.380;2023-12-28T07:27:31;145011.22;;;13.90;52.36
8280;BME280;8335;42.646;23.380;2023-12-28T07:29:58;145100.97;;;14.27;51.33
8280;BME280;8335;42.646;23.380;2023-12-28T07:32:26;145158.41;;;14.50;50.46
8280;BME280;8335;42.646;23.380;2023-12-28T07:34:52;145190.78;;;14.64;48.42
8280;BME280;8335;42.646;23.380;2023-12-28T07:37:19;145249.44;;;14.88;45.68
8280;BME280;8335;42.646;23.380;2023-12-28T07:39:46;145311.78;;;15.13;45.11
8280;BME280;8335;42.646;23.380;2023-12-28T07:42:13;145353.00;;;15.30;44.03
8280;BME280;8335;42.646;23.380;2023-12-28T07:44:40;145401.63;;;15.50;43.83
8280;BME280;8335;42.646;23.380;2023-12-28T07:47:07;145411.63;;;15.54;43.24
8280;BME280;8335;42.646;23.380;2023-12-28T07:49:35;145446.63;;;15.68;42.29
8280;BME280;8335;42.646;23.380;2023-12-28T07:52:02;145452.84;;;15.71;42.39
8280;BME280;8335;42.646;23.380;2023-12-28T07:54:28;145390.44;;;15.45;44.75
8280;BME280;8335;42.646;23.380;2023-12-28T07:56:55;145259.41;;;14.92;46.26
8280;BME280;8335;42.646;23.380;2023-12-28T07:59:22;145190.78;;;14.64;47.46
8280;BME280;8335;42.646;23.380;2023-12-28T08:01:48;145185.81;;;14.62;47.93
8280;BME280;8335;42.646;23.380;2023-12-28T08:04:15;145245.72;;;14.86;47.93
8280;BME280;8335;42.646;23.380;2023-12-28T08:06:43;145158.41;;;14.50;47.85
8280;BME280;8335;42.646;23.380;2023-12-28T08:09:10;145220.75;;;14.76;48.43
8280;BME280;8335;42.646;23.380;2023-12-28T08:11:37;145280.63;;;15.00;47.14
8280;BME280;8335;42.646;23.380;2023-12-28T08:14:04;145377.94;;;15.40;46.66
8280;BME280;8335;42.646;23.380;2023-12-28T08:16:31;145449.13;;;15.69;45.52
8280;BME280;8335;42.646;23.380;2023-12-28T08:18:58;145511.53;;;15.94;45.34
8280;BME280;8335;42.646;23.380;2023-12-28T08:21:24;145573.94;;;16.20;45.11
8280;BME280;8335;42.646;23.380;2023-12-28T08:23:53;145656.38;;;16.54;43.53
8280;BME280;8335;42.646;23.380;2023-12-28T08:26:19;145730.09;;;16.84;43.04
8280;BME280;8335;42.646;23.380;2023-12-28T08:28:46;145756.38;;;16.94;42.31
8280;BME280;8335;42.646;23.380;2023-12-28T08:31:13;145640.13;;;16.47;43.33
8280;BME280;8335;42.646;23.380;2023-12-28T08:33:40;145626.38;;;16.41;43.65
8280;BME280;8335;42.646;23.380;2023-12-28T08:36:08;145485.31;;;15.84;44.88
8280;BME280;8335;42.646;23.380;2023-12-28T08:38:35;145386.69;;;15.44;46.33
8280;BME280;8335;42.646;23.380;2023-12-28T08:41:03;145296.81;;;15.07;47.39
8280;BME280;8335;42.646;23.380;2023-12-28T08:43:34;145359.22;;;15.32;48.05
8280;BME280;8335;42.646;23.380;2023-12-28T08:46:01;145481.56;;;15.82;47.42
8280;BME280;8335;42.646;23.380;2023-12-28T08:48:27;145620.16;;;16.39;46.08
8280;BME280;8335;42.646;23.380;2023-12-28T08:50:54;145767.56;;;16.99;44.61
8280;BME280;8335;42.646;23.380;2023-12-28T08:53:21;145902.56;;;17.54;43.29
8280;BME280;8335;42.646;23.380;2023-12-28T08:55:47;146015.09;;;18.00;42.04
8280;BME280;8335;42.646;23.380;2023-12-28T08:58:16;146023.84;;;18.03;41.29
8280;BME280;8335;42.646;23.380;2023-12-28T09:00:42;145973.84;;;17.83;41.45
8280;BME280;8335;42.646;23.380;2023-12-28T09:03:10;145901.31;;;17.53;42.09
8280;BME280;8335;42.646;23.380;2023-12-28T09:05:37;145852.56;;;17.33;42.56
8280;BME280;8335;42.646;23.380;2023-12-28T09:08:05;145858.84;;;17.36;43.45
8280;BME280;8335;42.646;23.380;2023-12-28T09:10:31;145877.56;;;17.44;43.03
8280;BME280;8335;42.646;23.380;2023-12-28T09:12:58;145882.56;;;17.46;42.63
8280;BME280;8335;42.646;23.380;2023-12-28T09:15:26;145856.28;;;17.35;42.35
8280;BME280;8335;42.646;23.380;2023-12-28T09:17:53;145868.81;;;17.40;42.46
8280;BME280;8335;42.646;23.380;2023-12-28T09:20:20;145792.59;;;17.09;42.79
8280;BME280;8335;42.646;23.380;2023-12-28T09:22:46;145768.81;;;16.99;43.14
8280;BME280;8335;42.646;23.380;2023-12-28T09:25:18;145736.38;;;16.86;43.33
8280;BME280;8335;42.646;23.380;2023-12-28T09:27:45;145733.84;;;16.85;43.38
8280;BME280;8335;42.646;23.380;2023-12-28T09:30:12;145778.84;;;17.03;43.31
8280;BME280;8335;42.646;23.380;2023-12-28T09:32:40;145805.06;;;17.14;43.02
8280;BME280;8335;42.646;23.380;2023-12-28T09:35:07;145867.56;;;17.40;42.98
8280;BME280;8335;42.646;23.380;2023-12-28T09:37:34;145856.28;;;17.35;42.14
8280;BME280;8335;42.646;23.380;2023-12-28T09:40:01;145848.81;;;17.32;42.68
8280;BME280;8335;42.646;23.380;2023-12-28T09:42:32;145846.31;;;17.31;42.68
8280;BME280;8335;42.646;23.380;2023-12-28T09:44:59;145880.06;;;17.45;43.03
8280;BME280;8335;42.646;23.380;2023-12-28T09:47:26;145933.81;;;17.67;41.79
8280;BME280;8335;42.646;23.380;2023-12-28T09:49:54;145945.06;;;17.71;41.60
8280;BME280;8335;42.646;23.380;2023-12-28T09:52:20;145890.03;;;17.49;41.86
8280;BME280;8335;42.646;23.380;2023-12-28T09:54:47;145860.06;;;17.37;42.44
8280;BME280;8335;42.646;23.380;2023-12-28T09:57:14;145847.56;;;17.31;43.10
8280;BME280;8335;42.646;23.380;2023-12-28T09:59:41;145826.34;;;17.23;43.47
8280;BME280;8335;42.646;23.380;2023-12-28T10:02:09;145875.03;;;17.43;42.62
8280;BME280;8335;42.646;23.380;2023-12-28T10:04:36;145873.78;;;17.42;42.75
8280;BME280;8335;42.646;23.380;2023-12-28T10:07:04;145822.53;;;17.21;43.27
8280;BME280;8335;42.646;23.380;2023-12-28T10:09:31;145728.84;;;16.83;44.10
8280;BME280;8335;42.646;23.380;2023-12-28T10:11:58;145700.13;;;16.71;45.23
8280;BME280;8335;42.646;23.380;2023-12-28T10:14:25;145740.13;;;16.88;44.51
8280;BME280;8335;42.646;23.380;2023-12-28T10:16:52;145792.59;;;17.09;44.42
8280;BME280;8335;42.646;23.380;2023-12-28T10:19:21;145772.63;;;17.01;44.39
8280;BME280;8335;42.646;23.380;2023-12-28T10:21:48;145728.84;;;16.83;44.29
8280;BME280;8335;42.646;23.380;2023-12-28T10:24:16;145705.16;;;16.73;45.06
8280;BME280;8335;42.646;23.380;2023-12-28T10:26:43;145696.38;;;16.70;45.14
8280;BME280;8335;42.646;23.380;2023-12-28T10:29:09;145657.63;;;16.54;45.85
8280;BME280;8335;42.646;23.380;2023-12-28T10:31:37;145635.16;;;16.45;45.88
8280;BME280;8335;42.646;23.380;2023-12-28T10:34:04;145597.69;;;16.30;46.61
8280;BME280;8335;42.646;23.380;2023-12-28T10:36:32;145571.44;;;16.19;46.49
8280;BME280;8335;42.646;23.380;2023-12-28T10:39:01;145491.56;;;15.86;47.29
8280;BME280;8335;42.646;23.380;2023-12-28T10:41:32;145444.13;;;15.67;48.08
8280;BME280;8335;42.646;23.380;2023-12-28T10:44:03;145427.84;;;15.60;48.21
8280;BME280;8335;42.646;23.380;2023-12-28T10:46:32;145482.81;;;15.83;48.60
8280;BME280;8335;42.646;23.380;2023-12-28T10:49:00;145437.91;;;15.64;48.32
8280;BME280;8335;42.646;23.380;2023-12-28T10:51:34;145425.38;;;15.59;48.66
8280;BME280;8335;42.646;23.380;2023-12-28T10:54:14;145390.44;;;15.45;49.17
8280;BME280;8335;42.646;23.380;2023-12-28T10:56:53;145395.41;;;15.47;49.19
8280;BME280;8335;42.646;23.380;2023-12-28T10:59:28;145461.59;;;15.74;48.82
8280;BME280;8335;42.646;23.380;2023-12-28T11:02:01;145450.34;;;15.69;48.61
8280;BME280;8335;42.646;23.380;2023-12-28T11:04:33;145472.81;;;15.79;48.46
8280;BME280;8335;42.646;23.380;2023-12-28T11:07:01;145434.13;;;15.63;48.55
8280;BME280;8335;42.646;23.380;2023-12-28T11:09:30;145477.84;;;15.81;48.52
8280;BME280;8335;42.646;23.380;2023-12-28T11:12:00;145450.34;;;15.69;48.90
8280;BME280;8335;42.646;23.380;2023-12-28T11:14:28;145472.81;;;15.79;49.04
8280;BME280;8335;42.646;23.380;2023-12-28T11:16:55;145455.34;;;15.72;48.81
8280;BME280;8335;42.646;23.380;2023-12-28T11:19:23;145482.81;;;15.83;48.93
8280;BME280;8335;42.646;23.380;2023-12-28T11:21:51;145490.28;;;15.86;49.01
8280;BME280;8335;42.646;23.380;2023-12-28T11:24:19;145480.31;;;15.82;49.20
8280;BME280;8335;42.646;23.380;2023-12-28T11:26:52;145465.34;;;15.76;49.12
8280;BME280;8335;42.646;23.380;2023-12-28T11:29:20;145415.38;;;15.55;49.59
8280;BME280;8335;42.646;23.380;2023-12-28T11:31:50;145417.84;;;15.56;49.69
8280;BME280;8335;42.646;23.380;2023-12-28T11:34:17;145401.63;;;15.50;49.56
8280;BME280;8335;42.646;23.380;2023-12-28T11:36:48;145390.44;;;15.45;49.72
8280;BME280;8335;42.646;23.380;2023-12-28T11:39:23;145340.50;;;15.25;50.29
8280;BME280;8335;42.646;23.380;2023-12-28T11:41:59;145285.63;;;15.02;50.89
8280;BME280;8335;42.646;23.380;2023-12-28T11:44:29;145283.13;;;15.01;50.78
8280;BME280;8335;42.646;23.380;2023-12-28T11:46:56;145229.50;;;14.79;51.35
8280;BME280;8335;42.646;23.380;2023-12-28T11:49:25;145204.53;;;14.69;51.82
8280;BME280;8335;42.646;23.380;2023-12-28T11:51:56;145203.28;;;14.69;51.79
8280;BME280;8335;42.646;23.380;2023-12-28T11:54:24;145215.75;;;14.74;51.84
8280;BME280;8335;42.646;23.380;2023-12-28T11:56:51;145184.56;;;14.61;52.54
8280;BME280;8335;42.646;23.380;2023-12-28T11:59:18;145158.41;;;14.50;52.61
8280;BME280;8335;42.646;23.380;2023-12-28T12:01:50;145119.69;;;14.35;53.27
8280;BME280;8335;42.646;23.380;2023-12-28T12:04:17;145099.72;;;14.26;53.51
8280;BME280;8335;42.646;23.380;2023-12-28T12:06:44;145064.81;;;14.12;54.26
8280;BME280;8335;42.646;23.380;2023-12-28T12:09:11;144998.75;;;13.85;54.83
8280;BME280;8335;42.646;23.380;2023-12-28T12:11:38;144962.59;;;13.70;55.22
8280;BME280;8335;42.646;23.380;2023-12-28T12:14:08;144933.97;;;13.59;55.74
8280;BME280;8335;42.646;23.380;2023-12-28T12:16:35;144914.06;;;13.51;56.16
8280;BME280;8335;42.646;23.380;2023-12-28T12:19:04;144837.97;;;13.19;56.52
8280;BME280;8335;42.646;23.380;2023-12-28T12:21:32;144816.81;;;13.11;56.76
8280;BME280;8335;42.646;23.380;2023-12-28T12:23:59;144778.19;;;12.95;56.70
8280;BME280;8335;42.646;23.380;2023-12-28T12:26:26;144752.03;;;12.84;57.51
8280;BME280;8335;42.646;23.380;2023-12-28T12:28:53;144717.16;;;12.70;59.05
8280;BME280;8335;42.646;23.380;2023-12-28T12:31:20;144707.22;;;12.66;59.96
8280;BME280;8335;42.646;23.380;2023-12-28T12:33:47;144707.22;;;12.66;60.52
8280;BME280;8335;42.646;23.380;2023-12-28T12:36:15;144686.06;;;12.57;61.50
8280;BME280;8335;42.646;23.380;2023-12-28T12:38:42;144653.69;;;12.44;61.18
8280;BME280;8335;42.646;23.380;2023-12-28T12:41:10;144639.97;;;12.38;61.36
8280;BME280;8335;42.646;23.380;2023-12-28T12:43:37;144633.78;;;12.36;61.49
8280;BME280;8335;42.646;23.380;2023-12-28T12:46:06;144636.25;;;12.37;61.71
8280;BME280;8335;42.646;23.380;2023-12-28T12:48:33;144638.75;;;12.38;62.16
8280;BME280;8335;42.646;23.380;2023-12-28T12:51:02;144626.28;;;12.33;62.05
8280;BME280;8335;42.646;23.380;2023-12-28T12:53:34;144622.56;;;12.31;62.36
8280;BME280;8335;42.646;23.380;2023-12-28T12:56:03;144620.06;;;12.30;62.80
8280;BME280;8335;42.646;23.380;2023-12-28T12:58:30;144606.38;;;12.25;62.91
8280;BME280;8335;42.646;23.380;2023-12-28T13:00:57;144618.81;;;12.30;62.43
8280;BME280;8335;42.646;23.380;2023-12-28T13:03:27;144632.50;;;12.35;62.09
8280;BME280;8335;42.646;23.380;2023-12-28T13:05:54;144643.72;;;12.40;61.73